Cayenne, French Guiana
Current Conditions -  °F | °C
As of 5:30 PM on Monday 26 Jan 2015 (Local Time) from SOCA Reporting Station
Broken Clouds Broken Clouds  
Wind Chill: 82°   Ceiling: 3400
Heat Index: 87°   Visibility: 6mi
Dew Point: 72°   Wind: 12mph
Humidity: 70%   Direction: 40°NE
Pressure: 29.88"   Gusts: NA
Location:  4.92°N, 52.34°W
Report Text: SOCA 262030Z AUTO 04010KT 9999 SCT025/// BKN034/// BKN043///28/22 Q1012
Loading
Personal Weather Stations






























Interactive Weather Map New forecast layout! Learn more

10-Day Weather Forecast

Advertisements
Track Severe Weather on mobile